Time;durP1;ratioP1;P1;durP2;ratioP2;P2;SDS_P1;SDS_P2;PMS_P1;PMS_P2;Temp;Humidity;BMP_temperature;BMP_pressure;BME280_temperature;BME280_humidity;BME280_pressure;Samples;Min_cycle;Max_cycle;Signal;HPM_P1;HPM_P2
2022/09/29 00:01:32;;;;;;;5.47;3.25;;;;;;;11.21;70.96;97037.94;5015403;28;20057;-76
2022/09/29 00:03:58;;;;;;;5.25;2.97;;;;;;;11.20;70.93;97039.13;5000542;28;20058;-76
2022/09/29 00:06:24;;;;;;;7.10;5.55;;;;;;;11.21;71.77;97034.41;5017688;28;20539;-76
2022/09/29 00:08:49;;;;;;;10.18;6.60;;;;;;;11.23;71.19;97043.13;5008707;28;20030;-76
2022/09/29 00:11:17;;;;;;;11.25;7.53;;;;;;;11.23;71.18;97056.84;5010133;28;20076;-76
2022/09/29 00:13:43;;;;;;;12.30;7.18;;;;;;;11.22;71.60;97052.47;5016417;28;20108;-76
2022/09/29 00:16:10;;;;;;;9.48;6.93;;;;;;;11.23;71.90;97062.31;5010084;28;20069;-76
2022/09/29 00:18:35;;;;;;;11.85;6.47;;;;;;;11.23;71.24;97063.13;5009384;28;20034;-76
2022/09/29 00:21:10;;;;;;;8.43;5.45;;;;;;;11.23;71.63;97068.59;5008211;28;20075;-76
2022/09/29 00:23:36;;;;;;;7.57;4.95;;;;;;;11.26;71.69;97075.38;5009130;28;20549;-76
2022/09/29 00:26:12;;;;;;;7.20;5.25;;;;;;;11.27;71.96;97061.31;5002501;28;20042;-76
2022/09/29 00:28:39;;;;;;;8.35;5.03;;;;;;;11.28;72.03;97064.88;5008822;28;20111;-76
2022/09/29 00:31:06;;;;;;;7.38;5.30;;;;;;;11.26;71.53;97067.94;5011714;28;20034;-76
2022/09/29 00:33:34;;;;;;;9.90;6.03;;;;;;;11.27;71.64;97074.25;5010250;28;20112;-76
2022/09/29 00:36:09;;;;;;;12.07;7.35;;;;;;;11.22;71.59;97072.47;5009219;28;20148;-76
2022/09/29 00:38:35;;;;;;;20.35;12.13;;;;;;;11.23;71.87;97082.31;5008261;28;20049;-76
2022/09/29 00:41:01;;;;;;;19.63;12.07;;;;;;;11.24;72.21;97083.13;5010698;28;20041;-76
2022/09/29 00:43:46;;;;;;;19.92;11.95;;;;;;;11.22;71.82;97091.69;5011501;28;20029;-76
2022/09/29 00:46:13;;;;;;;14.52;9.25;;;;;;;11.23;71.70;97085.06;5009071;28;20092;-75
2022/09/29 00:48:40;;;;;;;9.90;6.88;;;;;;;11.22;72.21;97083.47;5008809;28;20034;-76
2022/09/29 00:51:05;;;;;;;11.27;7.22;;;;;;;11.19;71.94;97077.84;5009414;28;20030;-76
2022/09/29 00:53:32;;;;;;;12.00;6.63;;;;;;;11.19;71.76;97075.91;5002212;28;20033;-76
2022/09/29 00:56:08;;;;;;;10.15;6.55;;;;;;;11.21;72.11;97083.81;5009727;28;20042;-76
2022/09/29 00:58:38;;;;;;;14.70;8.30;;;;;;;11.21;71.70;97076.38;5018624;28;20022;-76
2022/09/29 01:01:05;;;;;;;22.80;12.00;;;;;;;11.21;71.85;97061.84;5011825;28;20045;-76
2022/09/29 01:03:36;;;;;;;35.50;16.73;;;;;;;11.20;71.85;97068.47;5026438;28;20401;-76
2022/09/29 01:06:10;;;;;;;37.97;18.80;;;;;;;11.21;72.17;97064.59;5014247;28;20062;-78
2022/09/29 01:08:42;;;;;;;40.22;20.58;;;;;;;11.22;72.35;97074.44;5009599;28;20042;-79
2022/09/29 01:11:10;;;;;;;40.88;21.23;;;;;;;11.24;72.66;97074.91;5011766;28;20658;-78
2022/09/29 01:13:37;;;;;;;37.45;19.45;;;;;;;11.24;72.58;97074.91;5020987;28;20034;-78
2022/09/29 01:16:02;;;;;;;25.67;15.05;;;;;;;11.23;71.98;97068.59;5024123;28;20389;-78
2022/09/29 01:18:29;;;;;;;24.45;15.05;;;;;;;11.22;72.32;97079.94;5010306;28;20022;-79
2022/09/29 01:21:08;;;;;;;21.48;14.15;;;;;;;11.23;72.25;97084.28;5009125;28;20150;-78
2022/09/29 01:24:10;;;;;;;17.55;12.15;;;;;;;11.19;71.97;97092.38;5012055;28;20033;-78
2022/09/29 01:26:59;;;;;;;16.92;11.52;;;;;;;11.20;72.59;97091.25;5011539;28;20046;-78
2022/09/29 01:29:38;;;;;;;16.27;11.23;;;;;;;11.21;71.92;97081.84;5013509;28;20036;-78
2022/09/29 01:32:13;;;;;;;16.73;10.20;;;;;;;11.23;72.32;97074.09;5013886;28;20029;-78
2022/09/29 01:35:15;;;;;;;15.60;10.23;;;;;;;11.21;72.19;97073.63;5012455;28;20033;-77
2022/09/29 01:38:05;;;;;;;14.52;9.65;;;;;;;11.19;72.01;97081.41;5011568;28;20076;-78
2022/09/29 01:40:38;;;;;;;15.30;9.75;;;;;;;11.17;72.43;97078.97;5014872;28;20072;-78
2022/09/29 01:43:32;;;;;;;16.90;10.93;;;;;;;11.16;72.62;97084.81;5017225;28;20358;-77
2022/09/29 01:46:23;;;;;;;13.15;9.93;;;;;;;11.19;72.34;97100.63;5009683;28;20038;-77
2022/09/29 01:48:56;;;;;;;15.07;10.18;;;;;;;11.21;72.30;97105.75;5015938;28;20052;-77
2022/09/29 01:51:35;;;;;;;16.52;10.35;;;;;;;11.20;72.81;97113.22;5009077;28;20489;-78
2022/09/29 01:54:07;;;;;;;16.30;10.40;;;;;;;11.21;72.78;97116.75;5009228;28;20048;-77
2022/09/29 01:56:51;;;;;;;14.90;10.57;;;;;;;11.21;72.63;97117.53;5011981;28;20777;-78
2022/09/29 01:59:34;;;;;;;14.32;9.93;;;;;;;11.23;72.80;97126.22;5011430;28;20074;-77
2022/09/29 02:02:08;;;;;;;13.30;9.80;;;;;;;11.25;72.89;97120.44;5008413;28;20041;-78
2022/09/29 02:04:46;;;;;;;13.68;9.35;;;;;;;11.26;72.36;97114.59;5010850;28;20084;-78
2022/09/29 02:07:28;;;;;;;15.05;9.57;;;;;;;11.24;72.98;97086.66;5008745;28;20042;-78
2022/09/29 02:10:04;;;;;;;12.38;8.75;;;;;;;11.25;72.76;97093.78;5010026;28;20091;-78
2022/09/29 02:12:33;;;;;;;11.80;8.25;;;;;;;11.25;72.93;97102.00;5011412;28;20033;-78
2022/09/29 02:15:02;;;;;;;14.55;9.40;;;;;;;11.23;73.26;97098.00;5016455;28;20116;-78
2022/09/29 02:17:37;;;;;;;13.40;8.63;;;;;;;11.23;72.45;97096.03;5011427;28;20469;-78
2022/09/29 02:20:03;;;;;;;12.93;8.55;;;;;;;11.26;73.08;97095.38;5009729;28;20061;-78
2022/09/29 02:22:29;;;;;;;14.93;10.10;;;;;;;11.25;72.77;97090.25;5011397;28;20029;-78
2022/09/29 02:24:57;;;;;;;12.80;9.80;;;;;;;11.25;72.99;97093.78;5011771;28;20022;-78
2022/09/29 02:27:25;;;;;;;15.40;10.05;;;;;;;11.24;72.58;97094.13;5018939;28;20046;-78
2022/09/29 02:29:51;;;;;;;16.63;10.35;;;;;;;11.24;72.87;97083.13;5012309;28;20128;-78
2022/09/29 02:32:18;;;;;;;13.80;9.77;;;;;;;11.22;72.75;97080.72;5012196;28;20109;-78
2022/09/29 02:34:47;;;;;;;15.45;10.40;;;;;;;11.21;73.01;97076.38;5020210;28;20034;-78
2022/09/29 02:37:28;;;;;;;15.97;11.13;;;;;;;11.19;72.63;97081.41;5025556;28;20045;-78
2022/09/29 02:40:03;;;;;;;16.50;10.90;;;;;;;11.18;73.15;97079.81;5026357;28;20032;-78
2022/09/29 02:42:55;;;;;;;17.58;11.20;;;;;;;11.16;72.82;97073.84;5011317;28;20450;-78
2022/09/29 02:45:38;;;;;;;17.45;10.65;;;;;;;11.18;73.45;97082.53;5018920;28;20498;-79
2022/09/29 02:48:22;;;;;;;15.70;10.82;;;;;;;11.18;72.69;97079.81;5010643;28;20044;-78
2022/09/29 02:51:26;;;;;;;18.08;11.05;;;;;;;11.19;73.19;97086.91;5010647;28;20076;-78
2022/09/29 02:54:09;;;;;;;17.50;11.25;;;;;;;11.20;73.53;97084.94;5009569;28;20029;-78
2022/09/29 02:56:53;;;;;;;15.68;10.30;;;;;;;11.20;73.54;97074.78;5015602;28;20026;-78
2022/09/29 02:59:37;;;;;;;16.45;10.15;;;;;;;11.18;73.50;97077.06;5013959;28;20025;-78
2022/09/29 03:02:02;;;;;;;15.82;10.18;;;;;;;11.20;72.95;97079.47;5022758;28;20087;-78
2022/09/29 03:04:28;;;;;;;14.18;9.77;;;;;;;11.19;73.54;97075.91;5012833;28;20417;-78
2022/09/29 03:06:53;;;;;;;15.88;9.85;;;;;;;11.18;73.22;97079.81;5012647;28;20021;-79
2022/09/29 03:09:19;;;;;;;15.02;8.98;;;;;;;11.16;72.82;97093.06;5020354;28;20045;-78
2022/09/29 03:11:44;;;;;;;13.10;8.75;;;;;;;11.16;73.43;97098.53;5014937;28;20028;-78
2022/09/29 03:14:10;;;;;;;12.25;9.23;;;;;;;11.13;72.84;97102.75;5022083;28;20029;-78
2022/09/29 03:16:36;;;;;;;15.57;9.68;;;;;;;11.11;73.26;97087.75;5025580;28;20033;-78
2022/09/29 03:19:04;;;;;;;13.48;9.23;;;;;;;11.07;72.77;97097.78;5012475;28;20030;-78
2022/09/29 03:21:30;;;;;;;14.07;8.88;;;;;;;11.06;72.83;97096.97;5011291;28;20026;-77
2022/09/29 03:23:55;;;;;;;12.25;8.55;;;;;;;11.06;72.81;97096.97;5009416;28;20032;-78
2022/09/29 03:26:22;;;;;;;13.38;8.45;;;;;;;11.05;73.24;97089.09;5018177;28;20464;-78
2022/09/29 03:28:48;;;;;;;11.25;7.57;;;;;;;11.02;72.77;97094.09;5011457;28;20508;-78
2022/09/29 03:31:14;;;;;;;10.98;8.02;;;;;;;11.02;72.88;97090.53;5011102;28;20026;-78
2022/09/29 03:33:40;;;;;;;12.00;7.45;;;;;;;11.01;73.60;97095.22;5018147;28;20450;-79
2022/09/29 03:36:07;;;;;;;9.07;7.18;;;;;;;11.00;73.45;97088.13;5011354;28;20118;-78
2022/09/29 03:38:33;;;;;;;10.77;7.53;;;;;;;10.98;72.83;97090.41;5010364;28;20104;-78
2022/09/29 03:40:59;;;;;;;11.32;7.45;;;;;;;10.97;73.60;97091.53;5010893;28;20099;-78
2022/09/29 03:43:24;;;;;;;12.38;7.65;;;;;;;10.96;73.46;97089.94;5011427;28;20026;-78
2022/09/29 03:45:52;;;;;;;9.15;6.80;;;;;;;10.95;72.73;97091.06;5010806;28;20482;-78
2022/09/29 03:48:19;;;;;;;9.73;5.88;;;;;;;10.93;72.88;97098.84;5013826;28;20030;-78
2022/09/29 03:50:46;;;;;;;11.45;6.00;;;;;;;10.91;73.23;97094.81;5010661;28;20490;-78
2022/09/29 03:53:12;;;;;;;9.00;5.55;;;;;;;10.90;72.77;97098.69;5009834;28;20041;-77
2022/09/29 03:55:38;;;;;;;7.75;4.90;;;;;;;10.89;73.61;97103.38;5005411;28;20013;-78
2022/09/29 03:58:03;;;;;;;6.78;4.68;;;;;;;10.89;73.21;97108.06;5013094;28;20072;-78
2022/09/29 04:00:29;;;;;;;7.00;4.78;;;;;;;10.87;73.44;97105.63;5024661;28;20106;-78
2022/09/29 04:02:54;;;;;;;8.90;5.45;;;;;;;10.84;73.57;97109.88;5018297;28;20482;-78
2022/09/29 04:05:20;;;;;;;7.25;4.97;;;;;;;10.83;72.88;97116.47;5011004;28;20022;-78
2022/09/29 04:07:46;;;;;;;9.15;5.82;;;;;;;10.82;73.56;97109.38;5017963;28;20029;-78
2022/09/29 04:10:11;;;;;;;8.77;5.63;;;;;;;10.84;72.86;97111.78;5026442;28;20045;-77
2022/09/29 04:12:37;;;;;;;8.75;6.10;;;;;;;10.85;73.67;97121.63;5008637;28;20038;-78
2022/09/29 04:15:02;;;;;;;8.43;6.05;;;;;;;10.84;72.88;97118.09;5009036;28;20038;-78
2022/09/29 04:17:28;;;;;;;10.65;6.82;;;;;;;10.82;73.35;97127.75;5008954;28;20036;-78
2022/09/29 04:19:53;;;;;;;9.45;6.53;;;;;;;10.82;73.18;97128.59;5008674;28;20445;-78
2022/09/29 04:22:18;;;;;;;7.85;5.97;;;;;;;10.82;72.86;97127.75;5009337;28;20041;-78
2022/09/29 04:24:46;;;;;;;8.43;6.22;;;;;;;10.81;73.05;97126.97;5023419;28;20032;-78
2022/09/29 04:27:13;;;;;;;10.25;6.80;;;;;;;10.79;73.56;97125.72;5008604;28;20077;-78
2022/09/29 04:29:38;;;;;;;16.15;7.28;;;;;;;10.79;73.66;97125.72;5010070;28;20048;-78
2022/09/29 04:32:05;;;;;;;9.27;5.85;;;;;;;10.79;73.29;97123.75;5009852;28;20034;-79
2022/09/29 04:34:31;;;;;;;12.27;7.15;;;;;;;10.81;73.25;97128.91;5007586;28;20394;-78
2022/09/29 04:36:56;;;;;;;9.63;6.78;;;;;;;10.81;73.21;97126.97;5012725;28;20472;-78
2022/09/29 04:39:21;;;;;;;8.80;6.63;;;;;;;10.80;72.89;97130.84;5012445;28;20052;-78
2022/09/29 04:41:47;;;;;;;9.57;6.95;;;;;;;10.80;73.18;97128.09;5013920;28;20394;-78
2022/09/29 04:44:12;;;;;;;9.77;7.03;;;;;;;10.79;73.17;97129.25;5023261;28;20022;-78
2022/09/29 04:46:38;;;;;;;10.45;6.53;;;;;;;10.77;72.73;97127.97;5002592;28;20031;-78
2022/09/29 04:49:03;;;;;;;8.35;6.53;;;;;;;10.75;73.27;97127.50;5009200;28;20037;-78
2022/09/29 04:51:29;;;;;;;8.88;6.80;;;;;;;10.72;73.33;97135.25;5009136;28;20033;-78
2022/09/29 04:53:57;;;;;;;8.32;5.88;;;;;;;10.72;73.36;97134.44;5009499;28;20041;-78
2022/09/29 04:56:22;;;;;;;10.10;6.03;;;;;;;10.74;73.99;97134.13;5007296;28;20405;-78
2022/09/29 04:58:47;;;;;;;9.18;6.22;;;;;;;10.74;73.66;97140.41;5027525;28;20025;-78
2022/09/29 05:01:13;;;;;;;8.68;6.30;;;;;;;10.75;73.45;97149.44;5013328;28;20774;-78
2022/09/29 05:03:38;;;;;;;10.25;6.93;;;;;;;10.75;73.69;97144.75;5012766;28;20037;-78
2022/09/29 05:06:04;;;;;;;10.25;6.93;;;;;;;10.77;73.29;97144.44;5013771;28;20034;-78
2022/09/29 05:08:30;;;;;;;11.45;5.65;;;;;;;10.75;72.97;97152.19;5024934;28;20513;-77
2022/09/29 05:10:56;;;;;;;8.73;5.35;;;;;;;10.74;73.63;97154.09;5016727;28;20038;-78
2022/09/29 05:13:22;;;;;;;7.50;5.20;;;;;;;10.74;73.80;97150.56;5015324;28;20041;-79
2022/09/29 05:15:47;;;;;;;6.32;4.78;;;;;;;10.74;73.17;97145.09;5016470;28;20041;-78
2022/09/29 05:18:12;;;;;;;8.48;5.07;;;;;;;10.75;73.18;97146.69;5021793;28;20025;-78
2022/09/29 05:20:38;;;;;;;8.13;5.05;;;;;;;10.75;73.82;97146.69;5010637;28;20045;-78
2022/09/29 05:23:08;;;;;;;7.78;5.10;;;;;;;10.75;73.58;97152.19;5019066;28;20408;-79
2022/09/29 05:25:34;;;;;;;8.00;5.30;;;;;;;10.76;73.05;97151.06;5013878;28;20030;-78
2022/09/29 05:28:00;;;;;;;8.65;5.07;;;;;;;10.77;72.98;97150.72;5020055;28;20417;-78
2022/09/29 05:30:25;;;;;;;10.27;6.00;;;;;;;10.78;73.81;97141.34;5012932;28;20113;-76
2022/09/29 05:32:51;;;;;;;8.00;5.90;;;;;;;10.81;73.38;97134.38;5013009;28;22027;-76
2022/09/29 05:35:16;;;;;;;7.97;5.32;;;;;;;10.85;73.66;97146.31;5027756;28;20382;-76
2022/09/29 05:37:42;;;;;;;8.52;6.25;;;;;;;10.89;73.51;97138.25;5011819;28;20061;-79
2022/09/29 05:40:07;;;;;;;10.77;6.82;;;;;;;10.90;73.96;97145.34;5015949;28;20046;-76
2022/09/29 05:42:33;;;;;;;10.52;6.80;;;;;;;10.89;73.22;97147.25;5011017;28;20492;-72
2022/09/29 05:44:59;;;;;;;9.90;6.88;;;;;;;10.89;73.58;97141.78;5009702;28;20486;-77
2022/09/29 05:47:24;;;;;;;12.00;6.53;;;;;;;10.91;73.72;97139.50;5013532;28;20489;-76
2022/09/29 05:49:49;;;;;;;9.02;6.78;;;;;;;10.93;73.48;97144.69;5014142;28;20036;-76
2022/09/29 05:52:15;;;;;;;11.38;6.40;;;;;;;10.94;73.21;97144.31;5020048;28;20495;-76
2022/09/29 05:54:40;;;;;;;9.98;7.10;;;;;;;10.96;72.92;97139.31;5032607;28;20029;-76
2022/09/29 05:57:05;;;;;;;10.45;6.85;;;;;;;10.98;73.63;97145.28;5015863;28;20022;-75
2022/09/29 05:59:31;;;;;;;13.20;7.10;;;;;;;10.99;73.36;97155.13;5004452;28;20065;-78
2022/09/29 06:01:56;;;;;;;15.77;8.23;;;;;;;11.00;73.14;97153.19;5009401;28;20038;-78
2022/09/29 06:04:21;;;;;;;13.68;7.68;;;;;;;11.02;73.94;97157.19;5010057;28;20030;-78
2022/09/29 06:06:47;;;;;;;12.60;6.95;;;;;;;11.05;73.95;97157.69;5008116;28;20057;-78
2022/09/29 06:09:13;;;;;;;11.88;6.90;;;;;;;11.08;73.67;97157.81;5023153;28;20122;-78
2022/09/29 06:11:38;;;;;;;9.00;6.20;;;;;;;11.13;73.67;97167.81;5012234;28;20163;-79
2022/09/29 06:14:04;;;;;;;11.55;6.72;;;;;;;11.17;73.33;97163.25;5016572;28;20284;-79
2022/09/29 06:16:31;;;;;;;12.43;7.38;;;;;;;11.19;73.15;97171.97;5016255;28;20381;-79
2022/09/29 06:18:58;;;;;;;11.52;8.00;;;;;;;11.21;73.41;97177.91;5012346;28;20037;-78
2022/09/29 06:21:26;;;;;;;10.60;7.85;;;;;;;11.22;73.86;97174.03;5018393;28;20075;-80
2022/09/29 06:23:55;;;;;;;11.65;7.38;;;;;;;11.24;73.45;97174.50;5011963;28;20022;-79
2022/09/29 06:26:22;;;;;;;9.95;6.57;;;;;;;11.28;73.64;97180.94;5017273;28;20052;-79
2022/09/29 06:28:47;;;;;;;12.07;6.57;;;;;;;11.32;73.72;97167.38;5019395;28;20025;-79
2022/09/29 06:31:18;;;;;;;11.68;7.18;;;;;;;11.36;73.75;97171.06;5024829;28;20036;-76
2022/09/29 06:33:44;;;;;;;13.77;8.05;;;;;;;11.42;73.73;97163.41;5010802;28;20057;-77
2022/09/29 06:39:19;;;;;;;20.50;12.63;;;;;;;11.54;73.23;97170.91;5011579;28;20123;-76
2022/09/29 06:41:52;;;;;;;16.05;10.30;;;;;;;11.56;73.50;97165.91;5009331;28;20077;-75
2022/09/29 06:44:19;;;;;;;18.35;10.45;;;;;;;11.57;73.15;97162.00;5004928;28;20113;-74
2022/09/29 06:46:44;;;;;;;13.18;8.13;;;;;;;11.60;73.10;97169.59;5010162;28;20037;-75
2022/09/29 06:49:12;;;;;;;12.98;8.10;;;;;;;11.64;73.65;97165.03;5009248;28;20034;-74
2022/09/29 06:51:37;;;;;;;13.10;6.68;;;;;;;11.66;73.42;97167.44;5010151;28;20030;-74
2022/09/29 06:54:02;;;;;;;12.38;8.65;;;;;;;11.69;73.36;97166.75;5010912;28;20126;-78
2022/09/29 06:56:28;;;;;;;12.15;8.25;;;;;;;11.71;73.28;97157.06;5010940;28;20034;-78
2022/09/29 06:58:54;;;;;;;17.60;10.90;;;;;;;11.76;73.82;97167.03;5015245;28;20056;-74
2022/09/29 07:01:20;;;;;;;22.52;13.90;;;;;;;11.81;73.61;97179.78;5025865;28;20071;-76
2022/09/29 07:03:45;;;;;;;27.42;16.65;;;;;;;11.84;73.58;97181.81;5029184;28;20056;-75
2022/09/29 07:06:11;;;;;;;16.27;10.88;;;;;;;11.88;73.19;97178.09;5008649;28;20037;-76
2022/09/29 07:08:38;;;;;;;14.43;7.97;;;;;;;11.94;73.14;97169.66;5014686;28;20048;-75
2022/09/29 07:11:08;;;;;;;11.00;6.90;;;;;;;11.94;72.93;97167.69;5012816;28;20030;-74
2022/09/29 07:13:34;;;;;;;12.13;7.75;;;;;;;11.96;73.12;97165.41;5026722;28;20030;-74
2022/09/29 07:16:08;;;;;;;18.38;11.20;;;;;;;11.99;73.38;97172.19;5023083;28;20056;-75
2022/09/29 07:18:36;;;;;;;11.40;6.90;;;;;;;12.02;72.84;97179.78;5010689;28;20068;-75
2022/09/29 07:21:03;;;;;;;8.60;6.38;;;;;;;12.05;72.76;97182.66;5013614;28;20037;-75
2022/09/29 07:23:28;;;;;;;7.07;4.75;;;;;;;12.07;73.13;97182.31;5020319;28;20029;-77
2022/09/29 07:25:54;;;;;;;7.25;4.90;;;;;;;12.09;72.85;97180.03;5022845;28;20466;-75
2022/09/29 07:28:19;;;;;;;7.03;4.63;;;;;;;12.12;72.83;97190.34;5018576;28;20041;-73
2022/09/29 07:30:44;;;;;;;7.00;4.88;;;;;;;12.13;72.93;97180.16;5015783;28;20037;-73
2022/09/29 07:33:10;;;;;;;8.73;4.85;;;;;;;12.13;72.71;97180.97;5009763;28;20030;-74
2022/09/29 07:35:35;;;;;;;9.07;5.32;;;;;;;12.16;72.37;97185.00;5011141;28;20048;-74
2022/09/29 07:38:00;;;;;;;28.80;11.45;;;;;;;12.20;72.45;97183.19;5031737;28;20030;-74
2022/09/29 07:40:26;;;;;;;32.17;13.30;;;;;;;12.21;72.74;97177.31;5030091;28;20170;-73
2022/09/29 07:42:53;;;;;;;78.45;29.85;;;;;;;12.27;73.03;97179.88;5006730;28;20029;-77
2022/09/29 07:45:19;;;;;;;37.35;15.02;;;;;;;12.28;72.83;97182.25;5009838;28;20033;-75
2022/09/29 07:47:44;;;;;;;14.20;7.45;;;;;;;12.31;72.92;97192.59;5014846;28;20033;-75
2022/09/29 07:50:11;;;;;;;10.52;5.72;;;;;;;12.34;72.09;97196.63;5023549;28;20597;-75
2022/09/29 07:52:36;;;;;;;9.02;5.53;;;;;;;12.35;72.43;97198.22;5016555;28;20057;-75
2022/09/29 07:55:03;;;;;;;9.63;5.53;;;;;;;12.36;72.68;97206.13;5006850;28;20104;-76
2022/09/29 07:57:28;;;;;;;8.05;5.50;;;;;;;12.39;72.57;97201.91;5018496;28;20041;-75
2022/09/29 07:59:56;;;;;;;8.45;5.47;;;;;;;12.40;72.28;97206.25;5017893;28;20498;-74
2022/09/29 08:02:22;;;;;;;8.73;5.95;;;;;;;12.41;72.02;97209.81;5006553;28;20038;-75
2022/09/29 08:04:47;;;;;;;9.23;6.07;;;;;;;12.42;72.18;97212.22;5016486;28;20037;-78
2022/09/29 08:07:13;;;;;;;12.35;6.72;;;;;;;12.45;71.84;97211.53;5011262;28;20735;-74
2022/09/29 08:09:39;;;;;;;10.65;6.20;;;;;;;12.48;71.74;97221.84;5027326;28;20426;-74
2022/09/29 08:12:04;;;;;;;10.23;6.45;;;;;;;12.55;71.93;97224.06;5022946;28;20468;-75
2022/09/29 08:14:29;;;;;;;10.38;6.63;;;;;;;12.56;72.00;97224.84;5016442;28;20033;-77
2022/09/29 08:16:55;;;;;;;10.75;6.50;;;;;;;12.59;72.08;97233.25;5013477;28;20119;-77
2022/09/29 08:19:20;;;;;;;7.95;5.85;;;;;;;12.61;71.86;97241.13;5016455;28;20041;-76
2022/09/29 08:21:48;;;;;;;8.52;5.75;;;;;;;12.61;71.68;97241.97;5028836;28;20026;-77
2022/09/29 08:24:16;;;;;;;11.65;5.78;;;;;;;12.59;71.73;97241.50;5009106;28;20033;-77
2022/09/29 08:26:42;;;;;;;9.15;6.28;;;;;;;12.58;71.64;97239.88;5019318;28;20053;-78
2022/09/29 08:29:08;;;;;;;9.95;6.20;;;;;;;12.61;71.46;97235.63;5020533;28;20037;-78
2022/09/29 08:31:36;;;;;;;11.00;6.63;;;;;;;12.65;71.69;97237.34;5012747;28;20393;-77
2022/09/29 08:34:02;;;;;;;8.77;5.80;;;;;;;12.68;71.72;97240.56;5019682;28;20029;-78
2022/09/29 08:36:28;;;;;;;10.32;5.95;;;;;;;12.74;71.84;97236.47;5033289;28;20474;-77
2022/09/29 08:38:56;;;;;;;8.63;6.53;;;;;;;12.78;71.67;97242.91;5026363;28;20280;-81
2022/09/29 08:41:44;;;;;;;8.52;5.10;;;;;;;12.85;71.66;97234.06;5018394;28;20777;-80
2022/09/29 08:44:32;;;;;;;7.72;5.35;;;;;;;12.86;71.35;97230.19;5016650;28;20038;-81
2022/09/29 08:47:22;;;;;;;8.50;5.05;;;;;;;12.82;71.11;97235.56;5019881;28;20037;-79
2022/09/29 08:49:58;;;;;;;9.45;4.75;;;;;;;12.78;70.65;97246.47;5014666;28;20033;-76
2022/09/29 08:52:27;;;;;;;7.13;4.88;;;;;;;12.77;71.01;97253.13;5016601;28;20021;-77
2022/09/29 08:54:59;;;;;;;7.45;4.70;;;;;;;12.73;70.33;97252.19;5017334;28;20026;-75
2022/09/29 08:57:25;;;;;;;7.05;4.32;;;;;;;12.71;70.50;97254.47;5013036;28;20029;-77
2022/09/29 08:59:56;;;;;;;8.88;4.90;;;;;;;12.72;70.56;97258.81;5012196;28;20029;-77
2022/09/29 09:02:49;;;;;;;7.05;5.10;;;;;;;12.72;70.46;97258.00;5007809;28;20401;-75
2022/09/29 09:05:22;;;;;;;5.97;4.18;;;;;;;12.72;70.18;97253.31;5007769;28;20278;-74
2022/09/29 09:08:06;;;;;;;6.53;4.10;;;;;;;12.69;70.23;97256.75;5004050;28;20042;-75
2022/09/29 09:11:03;;;;;;;7.05;4.30;;;;;;;12.68;69.92;97259.81;5023312;28;20052;-75
2022/09/29 09:13:45;;;;;;;16.20;8.07;;;;;;;12.65;70.13;97259.38;5010165;28;20044;-80
2022/09/29 09:16:24;;;;;;;6.05;4.40;;;;;;;12.70;69.98;97258.38;5014876;28;20033;-77
2022/09/29 09:19:27;;;;;;;6.45;4.80;;;;;;;12.72;69.98;97256.06;5020879;28;20038;-77
2022/09/29 09:22:18;;;;;;;7.30;5.00;;;;;;;12.77;70.15;97252.28;5022447;28;20029;-78
2022/09/29 09:25:19;;;;;;;11.07;5.13;;;;;;;12.80;69.93;97257.94;5008706;28;20510;-79
2022/09/29 09:27:53;;;;;;;6.40;4.53;;;;;;;12.88;70.14;97249.91;5002988;28;20258;-78
2022/09/29 09:30:19;;;;;;;8.25;4.82;;;;;;;12.93;69.96;97252.44;5006658;28;20042;-77
2022/09/29 09:32:55;;;;;;;9.75;4.95;;;;;;;12.98;69.98;97251.44;5003991;28;20034;-75
2022/09/29 09:35:49;;;;;;;8.00;5.35;;;;;;;13.01;69.83;97251.53;5011403;28;20037;-75
2022/09/29 09:38:20;;;;;;;7.70;5.38;;;;;;;13.03;69.43;97253.97;5005156;28;20496;-76
2022/09/29 09:40:52;;;;;;;7.53;5.30;;;;;;;13.05;69.67;97252.47;5010983;28;20032;-76
2022/09/29 09:43:42;;;;;;;8.57;4.78;;;;;;;13.08;69.73;97262.78;5010405;28;20018;-73
2022/09/29 09:46:22;;;;;;;8.20;4.85;;;;;;;13.12;69.73;97267.63;5009847;28;20045;-77
2022/09/29 09:49:08;;;;;;;7.85;4.65;;;;;;;13.16;69.50;97271.28;5016103;28;20045;-76
2022/09/29 09:51:59;;;;;;;9.20;6.20;;;;;;;13.16;69.42;97271.28;5015853;28;20044;-76
2022/09/29 09:54:33;;;;;;;10.20;5.80;;;;;;;13.15;68.63;97261.44;4990916;28;20034;-74
2022/09/29 09:57:08;;;;;;;9.77;5.75;;;;;;;13.10;69.09;97260.50;5011017;28;20033;-76
2022/09/29 09:59:44;;;;;;;6.95;4.93;;;;;;;13.13;68.88;97260.97;5013527;28;20048;-74
2022/09/29 10:02:18;;;;;;;8.05;4.63;;;;;;;13.15;69.13;97269.69;5011578;28;20145;-75
2022/09/29 10:04:48;;;;;;;4.63;2.90;;;;;;;13.20;68.84;97259.25;5018625;28;20043;-74
2022/09/29 10:07:13;;;;;;;3.20;2.58;;;;;;;13.32;68.89;97265.91;5015036;28;20189;-74
2022/09/29 10:09:39;;;;;;;4.07;3.00;;;;;;;13.43;68.59;97260.78;5013828;28;20445;-75
2022/09/29 10:12:04;;;;;;;4.45;2.72;;;;;;;13.46;68.18;97265.59;5014908;28;20041;-72
2022/09/29 10:14:31;;;;;;;5.70;3.55;;;;;;;13.49;67.79;97259.41;5014309;28;20374;-72
2022/09/29 10:17:01;;;;;;;8.23;5.05;;;;;;;13.53;67.69;97258.34;5014451;28;20033;-72
2022/09/29 10:20:00;;;;;;;10.15;6.10;;;;;;;13.54;67.61;97267.44;5012288;28;20091;-72
2022/09/29 10:22:27;;;;;;;4.63;3.45;;;;;;;13.57;67.08;97264.00;5010771;28;20041;-71
2022/09/29 10:25:14;;;;;;;5.80;3.58;;;;;;;13.61;67.12;97261.34;5015026;28;20034;-72
2022/09/29 10:27:44;;;;;;;7.50;4.63;;;;;;;13.70;67.38;97271.06;5016660;28;20057;-73
2022/09/29 10:30:34;;;;;;;5.53;4.32;;;;;;;13.75;66.95;97260.97;5016804;28;20038;-74
2022/09/29 10:33:02;;;;;;;11.38;5.97;;;;;;;13.80;66.74;97274.50;5010955;28;20033;-73
2022/09/29 10:35:40;;;;;;;7.70;4.05;;;;;;;13.81;66.39;97276.94;5012037;28;20542;-72
2022/09/29 10:38:15;;;;;;;4.43;3.22;;;;;;;13.86;66.38;97272.34;5012157;28;20140;-73
2022/09/29 10:41:18;;;;;;;4.40;3.10;;;;;;;13.97;66.75;97274.25;5009993;28;20068;-73
2022/09/29 10:43:46;;;;;;;6.07;2.78;;;;;;;14.07;66.42;97280.41;4935974;28;20553;-72
2022/09/29 10:46:34;;;;;;;4.82;2.75;;;;;;;14.11;65.91;97278.56;4950311;28;20047;-72
2022/09/29 10:49:08;;;;;;;2.97;2.10;;;;;;;14.19;65.54;97290.63;4949674;28;20042;-73
2022/09/29 10:51:34;;;;;;;2.28;2.00;;;;;;;14.25;65.48;97284.53;4976618;28;20622;-72
2022/09/29 10:54:07;;;;;;;2.08;1.88;;;;;;;14.32;65.03;97285.88;5017598;28;20112;-73
2022/09/29 10:56:33;;;;;;;3.40;2.20;;;;;;;14.38;64.64;97287.25;5016147;28;20022;-72
2022/09/29 10:59:00;;;;;;;4.82;2.38;;;;;;;14.41;63.95;97283.78;5014476;28;20034;-72
2022/09/29 11:01:28;;;;;;;9.85;3.67;;;;;;;14.43;63.93;97289.75;5013771;28;20060;-72
2022/09/29 11:04:00;;;;;;;9.95;4.65;;;;;;;14.45;63.95;97287.47;5012576;28;20025;-72
2022/09/29 11:06:31;;;;;;;11.98;5.82;;;;;;;14.45;63.97;97290.22;5012332;28;20418;-72
2022/09/29 11:09:20;;;;;;;10.90;5.05;;;;;;;14.44;64.06;97280.34;5011979;28;20112;-73
2022/09/29 11:11:45;;;;;;;8.55;4.57;;;;;;;14.40;63.69;97288.50;5005239;28;20057;-72
2022/09/29 11:14:34;;;;;;;7.50;4.00;;;;;;;14.37;63.66;97285.63;5013603;28;20053;-72
2022/09/29 11:17:01;;;;;;;7.75;3.40;;;;;;;14.41;63.84;97283.78;5015638;28;20474;-72
2022/09/29 11:19:30;;;;;;;4.85;2.65;;;;;;;14.45;63.36;97279.19;5013972;28;20112;-72
2022/09/29 11:22:03;;;;;;;5.93;2.63;;;;;;;14.48;63.18;97286.72;5017020;28;20148;-72
2022/09/29 11:24:53;;;;;;;4.82;3.05;;;;;;;14.53;63.64;97283.72;5011185;28;20040;-74
2022/09/29 11:27:37;;;;;;;20.35;8.82;;;;;;;14.58;62.59;97285.44;5015061;28;20447;-74
2022/09/29 11:30:09;;;;;;;7.50;4.35;;;;;;;14.60;63.09;97288.66;5012143;28;20061;-73
2022/09/29 11:32:38;;;;;;;7.15;3.50;;;;;;;14.65;62.99;97290.34;5017248;28;20448;-73
2022/09/29 11:35:22;;;;;;;4.00;2.58;;;;;;;14.64;62.94;97289.56;5012542;28;20056;-72
2022/09/29 11:37:47;;;;;;;5.13;2.80;;;;;;;14.64;62.04;97289.56;5013996;28;20082;-73
2022/09/29 11:40:34;;;;;;;3.58;3.03;;;;;;;14.69;62.63;97285.75;5014020;28;20781;-73
2022/09/29 11:43:21;;;;;;;5.28;2.97;;;;;;;14.72;62.27;97288.59;5009749;28;20419;-73
2022/09/29 11:46:15;;;;;;;5.15;2.85;;;;;;;14.78;62.01;97291.13;5015988;28;20127;-72
2022/09/29 11:49:00;;;;;;;6.97;4.50;;;;;;;14.86;61.85;97290.97;5011286;28;20061;-73